sensor_id;sensor_type;location;lat;lon;timestamp;P1;durP1;ratioP1;P2;durP2;ratioP2
31531;SDS011;23787;52.180;5.288;2022-09-09T00:04:35;310.80;;;287.80;;
31531;SDS011;23787;52.180;5.288;2022-09-09T00:24:39;289.90;;;269.00;;
31531;SDS011;23787;52.180;5.288;2022-09-09T00:34:36;365.30;;;339.30;;
31531;SDS011;23787;52.180;5.288;2022-09-09T00:39:38;365.30;;;339.30;;
31531;SDS011;23787;52.180;5.288;2022-09-09T00:49:43;345.30;;;321.20;;
31531;SDS011;23787;52.180;5.288;2022-09-09T01:09:42;347.00;;;321.70;;
31531;SDS011;23787;52.180;5.288;2022-09-09T01:14:40;347.00;;;321.70;;
31531;SDS011;23787;52.180;5.288;2022-09-09T01:19:43;358.80;;;333.40;;
31531;SDS011;23787;52.180;5.288;2022-09-09T01:29:35;358.80;;;333.40;;
31531;SDS011;23787;52.180;5.288;2022-09-09T01:49:34;365.00;;;340.00;;
31531;SDS011;23787;52.180;5.288;2022-09-09T01:54:34;365.00;;;340.00;;
31531;SDS011;23787;52.180;5.288;2022-09-09T01:59:47;365.00;;;340.00;;
31531;SDS011;23787;52.180;5.288;2022-09-09T02:14:37;332.10;;;309.30;;
31531;SDS011;23787;52.180;5.288;2022-09-09T02:19:37;351.00;;;327.80;;
31531;SDS011;23787;52.180;5.288;2022-09-09T02:24:37;351.00;;;327.80;;
31531;SDS011;23787;52.180;5.288;2022-09-09T02:29:37;351.00;;;327.80;;
31531;SDS011;23787;52.180;5.288;2022-09-09T02:39:34;372.60;;;347.60;;
31531;SDS011;23787;52.180;5.288;2022-09-09T02:44:35;372.60;;;347.60;;
31531;SDS011;23787;52.180;5.288;2022-09-09T02:49:40;364.10;;;340.00;;
31531;SDS011;23787;52.180;5.288;2022-09-09T02:54:36;364.10;;;340.00;;
31531;SDS011;23787;52.180;5.288;2022-09-09T02:59:34;364.10;;;340.00;;
31531;SDS011;23787;52.180;5.288;2022-09-09T03:04:34;376.60;;;350.70;;
31531;SDS011;23787;52.180;5.288;2022-09-09T03:09:34;376.60;;;350.70;;
31531;SDS011;23787;52.180;5.288;2022-09-09T03:29:34;388.90;;;363.10;;
31531;SDS011;23787;52.180;5.288;2022-09-09T03:34:34;357.00;;;334.60;;
31531;SDS011;23787;52.180;5.288;2022-09-09T03:39:34;357.00;;;334.60;;
31531;SDS011;23787;52.180;5.288;2022-09-09T03:49:34;368.60;;;345.00;;
31531;SDS011;23787;52.180;5.288;2022-09-09T03:54:34;368.60;;;345.00;;
31531;SDS011;23787;52.180;5.288;2022-09-09T03:59:34;368.60;;;345.00;;
31531;SDS011;23787;52.180;5.288;2022-09-09T04:04:34;361.00;;;338.20;;
31531;SDS011;23787;52.180;5.288;2022-09-09T04:09:34;361.00;;;338.20;;
31531;SDS011;23787;52.180;5.288;2022-09-09T04:24:34;381.20;;;356.80;;
31531;SDS011;23787;52.180;5.288;2022-09-09T04:29:34;381.20;;;356.80;;
31531;SDS011;23787;52.180;5.288;2022-09-09T04:34:34;353.60;;;330.60;;
31531;SDS011;23787;52.180;5.288;2022-09-09T04:44:34;353.60;;;330.60;;
31531;SDS011;23787;52.180;5.288;2022-09-09T04:49:35;349.10;;;325.70;;
31531;SDS011;23787;52.180;5.288;2022-09-09T04:54:34;349.10;;;325.70;;
31531;SDS011;23787;52.180;5.288;2022-09-09T04:59:34;349.10;;;325.70;;
31531;SDS011;23787;52.180;5.288;2022-09-09T05:09:34;347.60;;;324.90;;
31531;SDS011;23787;52.180;5.288;2022-09-09T05:19:34;385.40;;;360.90;;
31531;SDS011;23787;52.180;5.288;2022-09-09T05:24:34;385.40;;;360.90;;
31531;SDS011;23787;52.180;5.288;2022-09-09T05:29:34;385.40;;;360.90;;
31531;SDS011;23787;52.180;5.288;2022-09-09T05:34:34;359.10;;;337.20;;
31531;SDS011;23787;52.180;5.288;2022-09-09T05:39:34;359.10;;;337.20;;
31531;SDS011;23787;52.180;5.288;2022-09-09T05:44:34;359.10;;;337.20;;
31531;SDS011;23787;52.180;5.288;2022-09-09T05:59:34;328.20;;;306.60;;
31531;SDS011;23787;52.180;5.288;2022-09-09T06:09:34;347.40;;;325.80;;
31531;SDS011;23787;52.180;5.288;2022-09-09T06:14:34;347.40;;;325.80;;
31531;SDS011;23787;52.180;5.288;2022-09-09T06:19:35;313.30;;;292.50;;
31531;SDS011;23787;52.180;5.288;2022-09-09T06:24:34;313.30;;;292.50;;
31531;SDS011;23787;52.180;5.288;2022-09-09T06:29:34;313.30;;;292.50;;
31531;SDS011;23787;52.180;5.288;2022-09-09T06:34:34;345.10;;;322.10;;
31531;SDS011;23787;52.180;5.288;2022-09-09T06:39:34;345.10;;;322.10;;
31531;SDS011;23787;52.180;5.288;2022-09-09T06:44:34;345.10;;;322.10;;
31531;SDS011;23787;52.180;5.288;2022-09-09T06:54:34;333.80;;;312.40;;
31531;SDS011;23787;52.180;5.288;2022-09-09T06:59:34;333.80;;;312.40;;
31531;SDS011;23787;52.180;5.288;2022-09-09T07:04:34;347.50;;;323.90;;
31531;SDS011;23787;52.180;5.288;2022-09-09T07:09:34;347.50;;;323.90;;
31531;SDS011;23787;52.180;5.288;2022-09-09T07:14:34;347.50;;;323.90;;
31531;SDS011;23787;52.180;5.288;2022-09-09T07:19:34;373.30;;;348.30;;
31531;SDS011;23787;52.180;5.288;2022-09-09T07:24:34;373.30;;;348.30;;
31531;SDS011;23787;52.180;5.288;2022-09-09T07:29:34;373.30;;;348.30;;
31531;SDS011;23787;52.180;5.288;2022-09-09T07:34:34;383.40;;;357.10;;
31531;SDS011;23787;52.180;5.288;2022-09-09T07:39:34;383.40;;;357.10;;
31531;SDS011;23787;52.180;5.288;2022-09-09T07:44:34;383.40;;;357.10;;
31531;SDS011;23787;52.180;5.288;2022-09-09T07:49:34;363.20;;;336.10;;
31531;SDS011;23787;52.180;5.288;2022-09-09T07:54:34;363.20;;;336.10;;
31531;SDS011;23787;52.180;5.288;2022-09-09T07:59:34;363.20;;;336.10;;
31531;SDS011;23787;52.180;5.288;2022-09-09T08:04:34;341.50;;;315.80;;
31531;SDS011;23787;52.180;5.288;2022-09-09T08:09:34;341.50;;;315.80;;
31531;SDS011;23787;52.180;5.288;2022-09-09T08:14:34;341.50;;;315.80;;
31531;SDS011;23787;52.180;5.288;2022-09-09T08:19:34;324.10;;;299.00;;
31531;SDS011;23787;52.180;5.288;2022-09-09T08:24:34;324.10;;;299.00;;
31531;SDS011;23787;52.180;5.288;2022-09-09T08:29:34;324.10;;;299.00;;
31531;SDS011;23787;52.180;5.288;2022-09-09T08:34:34;322.10;;;295.60;;
31531;SDS011;23787;52.180;5.288;2022-09-09T08:39:34;322.10;;;295.60;;
31531;SDS011;23787;52.180;5.288;2022-09-09T08:49:48;288.40;;;266.20;;
31531;SDS011;23787;52.180;5.288;2022-09-09T08:59:34;288.40;;;266.20;;
31531;SDS011;23787;52.180;5.288;2022-09-09T09:04:46;291.00;;;268.30;;
31531;SDS011;23787;52.180;5.288;2022-09-09T09:09:39;291.00;;;268.30;;
31531;SDS011;23787;52.180;5.288;2022-09-09T09:14:35;291.00;;;268.30;;
31531;SDS011;23787;52.180;5.288;2022-09-09T09:19:35;289.50;;;268.20;;
31531;SDS011;23787;52.180;5.288;2022-09-09T09:24:41;289.50;;;268.20;;
31531;SDS011;23787;52.180;5.288;2022-09-09T09:29:34;289.50;;;268.20;;
31531;SDS011;23787;52.180;5.288;2022-09-09T09:34:34;305.50;;;281.70;;
31531;SDS011;23787;52.180;5.288;2022-09-09T09:39:34;305.50;;;281.70;;
31531;SDS011;23787;52.180;5.288;2022-09-09T09:44:34;305.50;;;281.70;;
31531;SDS011;23787;52.180;5.288;2022-09-09T09:49:34;312.20;;;289.60;;
31531;SDS011;23787;52.180;5.288;2022-09-09T09:54:38;312.20;;;289.60;;
31531;SDS011;23787;52.180;5.288;2022-09-09T09:59:35;312.20;;;289.60;;
31531;SDS011;23787;52.180;5.288;2022-09-09T10:09:34;285.30;;;265.00;;
31531;SDS011;23787;52.180;5.288;2022-09-09T10:14:39;285.30;;;265.00;;
31531;SDS011;23787;52.180;5.288;2022-09-09T10:19:36;325.70;;;301.10;;
31531;SDS011;23787;52.180;5.288;2022-09-09T10:39:37;299.00;;;275.90;;
31531;SDS011;23787;52.180;5.288;2022-09-09T10:44:49;299.00;;;275.90;;
31531;SDS011;23787;52.180;5.288;2022-09-09T10:49:51;307.60;;;284.20;;
31531;SDS011;23787;52.180;5.288;2022-09-09T10:54:42;307.60;;;284.20;;
31531;SDS011;23787;52.180;5.288;2022-09-09T10:59:39;307.60;;;284.20;;
31531;SDS011;23787;52.180;5.288;2022-09-09T11:04:39;296.00;;;273.30;;
31531;SDS011;23787;52.180;5.288;2022-09-09T11:09:39;296.00;;;273.30;;
31531;SDS011;23787;52.180;5.288;2022-09-09T11:14:38;296.00;;;273.30;;
31531;SDS011;23787;52.180;5.288;2022-09-09T11:19:36;281.80;;;259.80;;
31531;SDS011;23787;52.180;5.288;2022-09-09T11:24:38;281.80;;;259.80;;
31531;SDS011;23787;52.180;5.288;2022-09-09T11:29:50;281.80;;;259.80;;
31531;SDS011;23787;52.180;5.288;2022-09-09T11:34:43;272.60;;;251.10;;
31531;SDS011;23787;52.180;5.288;2022-09-09T11:39:43;272.60;;;251.10;;
31531;SDS011;23787;52.180;5.288;2022-09-09T11:44:34;272.60;;;251.10;;
31531;SDS011;23787;52.180;5.288;2022-09-09T11:49:40;256.00;;;235.90;;
31531;SDS011;23787;52.180;5.288;2022-09-09T11:54:46;256.00;;;235.90;;
31531;SDS011;23787;52.180;5.288;2022-09-09T11:59:34;256.00;;;235.90;;
31531;SDS011;23787;52.180;5.288;2022-09-09T12:04:37;229.80;;;210.40;;
31531;SDS011;23787;52.180;5.288;2022-09-09T12:09:43;229.80;;;210.40;;
31531;SDS011;23787;52.180;5.288;2022-09-09T12:14:37;229.80;;;210.40;;
31531;SDS011;23787;52.180;5.288;2022-09-09T12:19:34;235.10;;;214.60;;
31531;SDS011;23787;52.180;5.288;2022-09-09T12:24:37;235.10;;;214.60;;
31531;SDS011;23787;52.180;5.288;2022-09-09T12:29:41;235.10;;;214.60;;
31531;SDS011;23787;52.180;5.288;2022-09-09T12:34:39;222.30;;;203.60;;
31531;SDS011;23787;52.180;5.288;2022-09-09T12:39:37;222.30;;;203.60;;
31531;SDS011;23787;52.180;5.288;2022-09-09T12:44:34;222.30;;;203.60;;
31531;SDS011;23787;52.180;5.288;2022-09-09T12:49:36;262.50;;;240.70;;
31531;SDS011;23787;52.180;5.288;2022-09-09T12:54:36;262.50;;;240.70;;
31531;SDS011;23787;52.180;5.288;2022-09-09T12:59:36;262.50;;;240.70;;
31531;SDS011;23787;52.180;5.288;2022-09-09T13:04:34;224.80;;;206.10;;
31531;SDS011;23787;52.180;5.288;2022-09-09T13:14:36;224.80;;;206.10;;
31531;SDS011;23787;52.180;5.288;2022-09-09T13:24:35;224.60;;;206.00;;
31531;SDS011;23787;52.180;5.288;2022-09-09T13:29:35;224.60;;;206.00;;
31531;SDS011;23787;52.180;5.288;2022-09-09T13:34:35;202.60;;;185.80;;
31531;SDS011;23787;52.180;5.288;2022-09-09T13:39:36;202.60;;;185.80;;
31531;SDS011;23787;52.180;5.288;2022-09-09T13:44:37;202.60;;;185.80;;
31531;SDS011;23787;52.180;5.288;2022-09-09T13:49:35;198.60;;;181.30;;
31531;SDS011;23787;52.180;5.288;2022-09-09T13:55:50;unknown;;;unknown;;
31531;SDS011;23787;52.180;5.288;2022-09-09T14:00:50;189.40;;;172.30;;
31531;SDS011;23787;52.180;5.288;2022-09-09T14:05:50;189.40;;;172.30;;
31531;SDS011;23787;52.180;5.288;2022-09-09T14:10:50;189.40;;;172.30;;
31531;SDS011;23787;52.180;5.288;2022-09-09T14:20:50;189.50;;;173.50;;
31531;SDS011;23787;52.180;5.288;2022-09-09T14:25:51;189.50;;;173.50;;
31531;SDS011;23787;52.180;5.288;2022-09-09T14:30:50;180.50;;;166.20;;
31531;SDS011;23787;52.180;5.288;2022-09-09T14:35:55;180.50;;;166.20;;
31531;SDS011;23787;52.180;5.288;2022-09-09T14:40:50;180.50;;;166.20;;
31531;SDS011;23787;52.180;5.288;2022-09-09T14:45:50;177.30;;;162.00;;
31531;SDS011;23787;52.180;5.288;2022-09-09T14:50:50;177.30;;;162.00;;
31531;SDS011;23787;52.180;5.288;2022-09-09T14:55:50;177.30;;;162.00;;
31531;SDS011;23787;52.180;5.288;2022-09-09T15:00:50;198.70;;;181.80;;
31531;SDS011;23787;52.180;5.288;2022-09-09T15:05:50;198.70;;;181.80;;
31531;SDS011;23787;52.180;5.288;2022-09-09T15:10:50;198.70;;;181.80;;
31531;SDS011;23787;52.180;5.288;2022-09-09T15:15:50;202.20;;;186.10;;
31531;SDS011;23787;52.180;5.288;2022-09-09T15:20:50;202.20;;;186.10;;
31531;SDS011;23787;52.180;5.288;2022-09-09T15:25:50;202.20;;;186.10;;
31531;SDS011;23787;52.180;5.288;2022-09-09T15:30:50;187.40;;;172.00;;
31531;SDS011;23787;52.180;5.288;2022-09-09T15:35:50;187.40;;;172.00;;
31531;SDS011;23787;52.180;5.288;2022-09-09T15:40:53;187.40;;;172.00;;
31531;SDS011;23787;52.180;5.288;2022-09-09T15:45:54;200.70;;;184.10;;
31531;SDS011;23787;52.180;5.288;2022-09-09T15:51:01;200.70;;;184.10;;
31531;SDS011;23787;52.180;5.288;2022-09-09T15:55:54;200.70;;;184.10;;
31531;SDS011;23787;52.180;5.288;2022-09-09T16:00:50;192.70;;;177.30;;
31531;SDS011;23787;52.180;5.288;2022-09-09T16:05:51;192.70;;;177.30;;
31531;SDS011;23787;52.180;5.288;2022-09-09T16:10:50;192.70;;;177.30;;
31531;SDS011;23787;52.180;5.288;2022-09-09T16:15:53;236.30;;;216.30;;
31531;SDS011;23787;52.180;5.288;2022-09-09T16:20:53;236.30;;;216.30;;
31531;SDS011;23787;52.180;5.288;2022-09-09T16:25:53;236.30;;;216.30;;
31531;SDS011;23787;52.180;5.288;2022-09-09T16:30:50;228.10;;;209.30;;
31531;SDS011;23787;52.180;5.288;2022-09-09T16:35:50;228.10;;;209.30;;
31531;SDS011;23787;52.180;5.288;2022-09-09T16:40:50;228.10;;;209.30;;
31531;SDS011;23787;52.180;5.288;2022-09-09T16:45:50;209.20;;;192.20;;
31531;SDS011;23787;52.180;5.288;2022-09-09T16:51:13;209.20;;;192.20;;
31531;SDS011;23787;52.180;5.288;2022-09-09T16:55:50;209.20;;;192.20;;
31531;SDS011;23787;52.180;5.288;2022-09-09T17:00:50;269.00;;;248.90;;
31531;SDS011;23787;52.180;5.288;2022-09-09T17:10:50;269.00;;;248.90;;
31531;SDS011;23787;52.180;5.288;2022-09-09T17:20:50;268.30;;;247.20;;
31531;SDS011;23787;52.180;5.288;2022-09-09T17:30:51;228.40;;;211.40;;
31531;SDS011;23787;52.180;5.288;2022-09-09T17:35:50;228.40;;;211.40;;
31531;SDS011;23787;52.180;5.288;2022-09-09T17:40:50;228.40;;;211.40;;
31531;SDS011;23787;52.180;5.288;2022-09-09T17:50:56;277.20;;;255.80;;
31531;SDS011;23787;52.180;5.288;2022-09-09T17:55:50;277.20;;;255.80;;
31531;SDS011;23787;52.180;5.288;2022-09-09T18:00:50;260.40;;;240.10;;
31531;SDS011;23787;52.180;5.288;2022-09-09T18:05:50;260.40;;;240.10;;
31531;SDS011;23787;52.180;5.288;2022-09-09T18:10:51;260.40;;;240.10;;
31531;SDS011;23787;52.180;5.288;2022-09-09T18:15:50;284.10;;;262.10;;
31531;SDS011;23787;52.180;5.288;2022-09-09T18:20:57;284.10;;;262.10;;
31531;SDS011;23787;52.180;5.288;2022-09-09T18:25:50;284.10;;;262.10;;
31531;SDS011;23787;52.180;5.288;2022-09-09T18:30:50;272.80;;;251.00;;
31531;SDS011;23787;52.180;5.288;2022-09-09T18:35:50;272.80;;;251.00;;
31531;SDS011;23787;52.180;5.288;2022-09-09T18:40:51;272.80;;;251.00;;
31531;SDS011;23787;52.180;5.288;2022-09-09T18:45:50;283.00;;;261.70;;
31531;SDS011;23787;52.180;5.288;2022-09-09T18:55:57;283.00;;;261.70;;
31531;SDS011;23787;52.180;5.288;2022-09-09T19:00:50;313.20;;;289.00;;
31531;SDS011;23787;52.180;5.288;2022-09-09T19:10:50;313.20;;;289.00;;
31531;SDS011;23787;52.180;5.288;2022-09-09T19:20:50;312.10;;;289.50;;
31531;SDS011;23787;52.180;5.288;2022-09-09T19:25:50;312.10;;;289.50;;
31531;SDS011;23787;52.180;5.288;2022-09-09T19:35:55;336.70;;;310.90;;
31531;SDS011;23787;52.180;5.288;2022-09-09T19:55:50;324.10;;;298.30;;
31531;SDS011;23787;52.180;5.288;2022-09-09T20:00:50;335.70;;;309.80;;
31531;SDS011;23787;52.180;5.288;2022-09-09T20:05:50;335.70;;;309.80;;
31531;SDS011;23787;52.180;5.288;2022-09-09T20:20:50;370.30;;;342.20;;
31531;SDS011;23787;52.180;5.288;2022-09-09T20:30:50;326.60;;;303.00;;
31531;SDS011;23787;52.180;5.288;2022-09-09T20:40:50;326.60;;;303.00;;
31531;SDS011;23787;52.180;5.288;2022-09-09T20:45:50;359.30;;;332.80;;
31531;SDS011;23787;52.180;5.288;2022-09-09T20:50:50;359.30;;;332.80;;
31531;SDS011;23787;52.180;5.288;2022-09-09T21:15:50;334.10;;;310.00;;
31531;SDS011;23787;52.180;5.288;2022-09-09T21:30:52;349.60;;;325.60;;
31531;SDS011;23787;52.180;5.288;2022-09-09T21:35:50;349.60;;;325.60;;
31531;SDS011;23787;52.180;5.288;2022-09-09T21:40:50;349.60;;;325.60;;
31531;SDS011;23787;52.180;5.288;2022-09-09T21:45:50;382.50;;;354.50;;
31531;SDS011;23787;52.180;5.288;2022-09-09T21:50:51;382.50;;;354.50;;
31531;SDS011;23787;52.180;5.288;2022-09-09T22:05:51;371.80;;;344.80;;
31531;SDS011;23787;52.180;5.288;2022-09-09T22:10:50;371.80;;;344.80;;
31531;SDS011;23787;52.180;5.288;2022-09-09T22:15:50;360.00;;;335.10;;
31531;SDS011;23787;52.180;5.288;2022-09-09T22:20:50;360.00;;;335.10;;
31531;SDS011;23787;52.180;5.288;2022-09-09T22:30:50;388.10;;;360.90;;
31531;SDS011;23787;52.180;5.288;2022-09-09T22:35:50;388.10;;;360.90;;
31531;SDS011;23787;52.180;5.288;2022-09-09T23:35:57;339.80;;;315.50;;
31531;SDS011;23787;52.180;5.288;2022-09-09T23:45:50;378.70;;;351.50;;
31531;SDS011;23787;52.180;5.288;2022-09-09T23:50:50;378.70;;;351.50;;
31531;SDS011;23787;52.180;5.288;2022-09-09T23:55:50;378.70;;;351.50;;
